Liberty of The Seas — C6VQ8 — position and weather

sailwx.info

Track history (hours):
 
Tides and Currents Weather Stations Pressure Air Temp Water Temp Dewpoint Dewpoint Depression Visibility Wind Speed Wind Dir Waves Ship Positions

Liberty of The Seas

Last reported at 2014-Nov-22 14:25 UTC. Time now 2014-Nov-22 15:19 UTC.
Position N 26°05' W 080°07'.

Type: Passenger vessel. MMSI: 309436000.

Date/timePositionNaut miles runAvg speedWind from/ knotsBaromVisibWave heightAir tempDewpointWater temp
2014-Nov-22 14:25N 26°05' W 080°07'0 0.0
2014-Nov-22 13:25N 26°05' W 080°07'0 0.0
2014-Nov-22 12:28N 26°05' W 080°07'0 0.3
2014-Nov-22 11:33N 26°06' W 080°07'1110.8
2014-Nov-22 10:33N 25°58' W 079°58'20419.4
2014-Nov-22 00:00N 22°48' W 078°36'12621.0 070 / 261017.0 5.4 27.024.328.0
2014-Nov-21 18:00N 21°48' W 076°36'18610.4 090 / 151016.010.8 27.526.228.9
2014-Nov-21 00:00N 18°42' W 076°24'   130 / 121014.0 5.4 27.223.029.0
2014-Nov-17 22:33N 26°03' W 080°03'4 4.2
2014-Nov-17 21:30N 26°05' W 080°07'0 0.0
2014-Nov-17 20:30N 26°05' W 080°07'0 0.0
2014-Nov-17 19:30N 26°05' W 080°07'0 0.0
2014-Nov-17 18:33N 26°05' W 080°07'0 0.0
2014-Nov-17 17:33N 26°05' W 080°07'0 0.0
2014-Nov-17 16:33N 26°05' W 080°07'0 0.0
2014-Nov-17 15:33N 26°05' W 080°07'0 0.0
2014-Nov-17 14:33N 26°05' W 080°07'0 0.0
2014-Nov-17 13:33N 26°05' W 080°07'0 0.0
2014-Nov-17 12:24N 26°05' W 080°07'0 0.1
2014-Nov-17 11:33N 26°05' W 080°07'7 7.4
2014-Nov-17 10:33N 26°01' W 080°00'1414.3
2014-Nov-17 09:33N 25°48' W 079°54'50214.7
2014-Nov-15 23:17N 20°32' W 086°58'3 0.9
2014-Nov-15 19:33N 20°29' W 086°59'0 0.0
2014-Nov-15 18:33N 20°29' W 086°59'0 0.0
2014-Nov-15 17:27N 20°29' W 086°59'0 0.0
2014-Nov-15 16:09N 20°29' W 086°59'0 0.0
2014-Nov-15 14:21N 20°29' W 086°59'0 0.0
2014-Nov-15 12:34N 20°29' W 086°59'50713.3
2014-Nov-13 22:31N 26°02' W 080°03'5 4.9
2014-Nov-13 21:30N 26°05' W 080°07'0 0.0
2014-Nov-13 20:33N 26°05' W 080°07'0 0.0
2014-Nov-13 19:33N 26°05' W 080°07'0 0.0
2014-Nov-13 18:33N 26°05' W 080°07'0 0.0
2014-Nov-13 17:33N 26°05' W 080°07'0 0.0
2014-Nov-13 16:33N 26°05' W 080°07'0 0.0
2014-Nov-13 15:33N 26°05' W 080°07'0 0.0
2014-Nov-13 14:33N 26°05' W 080°07'0 0.0
2014-Nov-13 13:24N 26°05' W 080°07'0 0.0
2014-Nov-13 12:27N 26°05' W 080°07'1 0.9
2014-Nov-13 11:33N 26°06' W 080°06'1111.2
2014-Nov-13 10:33N 25°57' W 079°58'  
Track history (hours):
 
Tides and Currents Weather Stations Pressure Air Temp Water Temp Dewpoint Dewpoint Depression Visibility Wind Speed Wind Dir Waves Ship Positions

Liberty of The Seas

Last reported at 2014-Nov-22 14:25 UTC. Time now 2014-Nov-22 15:19 UTC.
Position N 26°05' W 080°07'.

Type: Passenger vessel. MMSI: 309436000.

Date/timePositionNaut miles runAvg speedWind from/ knotsBaromVisibWave heightAir tempDewpointWater temp
2014-Nov-22 14:25N 26°05' W 080°07'0 0.0
2014-Nov-22 13:25N 26°05' W 080°07'0 0.0
2014-Nov-22 12:28N 26°05' W 080°07'0 0.3
2014-Nov-22 11:33N 26°06' W 080°07'1110.8
2014-Nov-22 10:33N 25°58' W 079°58'20419.4
2014-Nov-22 00:00N 22°48' W 078°36'12621.0 070 / 261017.0 5.4 27.024.328.0
2014-Nov-21 18:00N 21°48' W 076°36'18610.4 090 / 151016.010.8 27.526.228.9
2014-Nov-21 00:00N 18°42' W 076°24'   130 / 121014.0 5.4 27.223.029.0
2014-Nov-17 22:33N 26°03' W 080°03'4 4.2
2014-Nov-17 21:30N 26°05' W 080°07'0 0.0
2014-Nov-17 20:30N 26°05' W 080°07'0 0.0
2014-Nov-17 19:30N 26°05' W 080°07'0 0.0
2014-Nov-17 18:33N 26°05' W 080°07'0 0.0
2014-Nov-17 17:33N 26°05' W 080°07'0 0.0
2014-Nov-17 16:33N 26°05' W 080°07'0 0.0
2014-Nov-17 15:33N 26°05' W 080°07'0 0.0
2014-Nov-17 14:33N 26°05' W 080°07'0 0.0
2014-Nov-17 13:33N 26°05' W 080°07'0 0.0
2014-Nov-17 12:24N 26°05' W 080°07'0 0.1
2014-Nov-17 11:33N 26°05' W 080°07'7 7.4
2014-Nov-17 10:33N 26°01' W 080°00'1414.3
2014-Nov-17 09:33N 25°48' W 079°54'50214.7
2014-Nov-15 23:17N 20°32' W 086°58'3 0.9
2014-Nov-15 19:33N 20°29' W 086°59'0 0.0
2014-Nov-15 18:33N 20°29' W 086°59'0 0.0
2014-Nov-15 17:27N 20°29' W 086°59'0 0.0
2014-Nov-15 16:09N 20°29' W 086°59'0 0.0
2014-Nov-15 14:21N 20°29' W 086°59'0 0.0
2014-Nov-15 12:34N 20°29' W 086°59'50713.3
2014-Nov-13 22:31N 26°02' W 080°03'5 4.9
2014-Nov-13 21:30N 26°05' W 080°07'0 0.0
2014-Nov-13 20:33N 26°05' W 080°07'0 0.0
2014-Nov-13 19:33N 26°05' W 080°07'0 0.0
2014-Nov-13 18:33N 26°05' W 080°07'0 0.0
2014-Nov-13 17:33N 26°05' W 080°07'0 0.0
2014-Nov-13 16:33N 26°05' W 080°07'0 0.0
2014-Nov-13 15:33N 26°05' W 080°07'0 0.0
2014-Nov-13 14:33N 26°05' W 080°07'0 0.0
2014-Nov-13 13:24N 26°05' W 080°07'0 0.0
2014-Nov-13 12:27N 26°05' W 080°07'1 0.9
2014-Nov-13 11:33N 26°06' W 080°06'1111.2
2014-Nov-13 10:33N 25°57' W 079°58'  

Dump ship's entire track history